sensor_id;sensor_type;location;lat;lon;timestamp;temperature;humidity
12604;DHT22;6367;52.508;13.284;2023-05-07T00:01:35;12.00;99.90
12604;DHT22;6367;52.508;13.284;2023-05-07T00:04:01;12.00;99.90
12604;DHT22;6367;52.508;13.284;2023-05-07T00:06:27;12.10;99.90
12604;DHT22;6367;52.508;13.284;2023-05-07T00:08:54;12.00;99.90
12604;DHT22;6367;52.508;13.284;2023-05-07T00:11:20;11.90;99.90
12604;DHT22;6367;52.508;13.284;2023-05-07T00:13:47;12.00;99.90
12604;DHT22;6367;52.508;13.284;2023-05-07T00:16:13;12.10;99.90
12604;DHT22;6367;52.508;13.284;2023-05-07T00:18:38;12.10;99.90
12604;DHT22;6367;52.508;13.284;2023-05-07T00:21:04;12.00;99.90
12604;DHT22;6367;52.508;13.284;2023-05-07T00:23:30;12.10;99.90
12604;DHT22;6367;52.508;13.284;2023-05-07T00:25:56;12.20;99.90
12604;DHT22;6367;52.508;13.284;2023-05-07T00:28:22;12.20;99.90
12604;DHT22;6367;52.508;13.284;2023-05-07T00:30:47;12.10;99.90
12604;DHT22;6367;52.508;13.284;2023-05-07T00:33:13;12.10;99.90
12604;DHT22;6367;52.508;13.284;2023-05-07T00:35:39;12.10;99.90
12604;DHT22;6367;52.508;13.284;2023-05-07T00:38:04;12.20;99.90
12604;DHT22;6367;52.508;13.284;2023-05-07T00:40:30;12.30;99.90
12604;DHT22;6367;52.508;13.284;2023-05-07T00:42:56;11.80;99.90
12604;DHT22;6367;52.508;13.284;2023-05-07T00:45:26;11.80;99.90
12604;DHT22;6367;52.508;13.284;2023-05-07T00:47:57;11.80;99.90
12604;DHT22;6367;52.508;13.284;2023-05-07T00:50:23;11.80;99.90
12604;DHT22;6367;52.508;13.284;2023-05-07T00:52:49;11.80;99.90
12604;DHT22;6367;52.508;13.284;2023-05-07T00:55:15;11.90;99.90
12604;DHT22;6367;52.508;13.284;2023-05-07T00:57:41;12.00;99.90
12604;DHT22;6367;52.508;13.284;2023-05-07T01:00:08;12.20;99.90
12604;DHT22;6367;52.508;13.284;2023-05-07T01:02:41;12.20;99.90
12604;DHT22;6367;52.508;13.284;2023-05-07T01:05:09;12.20;99.90
12604;DHT22;6367;52.508;13.284;2023-05-07T01:07:37;12.10;99.90
12604;DHT22;6367;52.508;13.284;2023-05-07T01:10:04;12.30;99.90
12604;DHT22;6367;52.508;13.284;2023-05-07T01:12:31;12.20;99.90
12604;DHT22;6367;52.508;13.284;2023-05-07T01:14:57;12.30;99.90
12604;DHT22;6367;52.508;13.284;2023-05-07T01:17:23;12.30;99.90
12604;DHT22;6367;52.508;13.284;2023-05-07T01:19:49;12.30;99.90
12604;DHT22;6367;52.508;13.284;2023-05-07T01:22:16;12.30;99.90
12604;DHT22;6367;52.508;13.284;2023-05-07T01:24:44;12.80;99.90
12604;DHT22;6367;52.508;13.284;2023-05-07T01:27:09;12.10;99.90
12604;DHT22;6367;52.508;13.284;2023-05-07T01:29:35;12.10;99.90
12604;DHT22;6367;52.508;13.284;2023-05-07T01:32:01;12.00;99.90
12604;DHT22;6367;52.508;13.284;2023-05-07T01:34:31;12.00;99.90
12604;DHT22;6367;52.508;13.284;2023-05-07T01:36:57;12.10;99.90
12604;DHT22;6367;52.508;13.284;2023-05-07T01:39:29;12.10;99.90
12604;DHT22;6367;52.508;13.284;2023-05-07T01:41:55;12.10;99.90
12604;DHT22;6367;52.508;13.284;2023-05-07T01:44:22;12.60;99.90
12604;DHT22;6367;52.508;13.284;2023-05-07T01:46:48;12.20;99.90
12604;DHT22;6367;52.508;13.284;2023-05-07T01:49:15;12.10;99.90
12604;DHT22;6367;52.508;13.284;2023-05-07T01:51:41;11.90;99.90
12604;DHT22;6367;52.508;13.284;2023-05-07T01:54:07;12.00;99.90
12604;DHT22;6367;52.508;13.284;2023-05-07T01:56:33;11.90;99.90
12604;DHT22;6367;52.508;13.284;2023-05-07T01:58:59;11.90;99.90
12604;DHT22;6367;52.508;13.284;2023-05-07T02:01:25;11.90;99.90
12604;DHT22;6367;52.508;13.284;2023-05-07T02:03:51;11.80;99.90
12604;DHT22;6367;52.508;13.284;2023-05-07T02:06:17;11.80;99.90
12604;DHT22;6367;52.508;13.284;2023-05-07T02:08:43;11.80;99.90
12604;DHT22;6367;52.508;13.284;2023-05-07T02:11:08;11.80;99.90
12604;DHT22;6367;52.508;13.284;2023-05-07T02:13:34;12.30;99.90
12604;DHT22;6367;52.508;13.284;2023-05-07T02:16:00;11.80;99.90
12604;DHT22;6367;52.508;13.284;2023-05-07T02:18:26;11.70;99.90
12604;DHT22;6367;52.508;13.284;2023-05-07T02:20:52;11.60;99.90
12604;DHT22;6367;52.508;13.284;2023-05-07T02:23:17;11.70;99.90
12604;DHT22;6367;52.508;13.284;2023-05-07T02:25:43;11.70;99.90
12604;DHT22;6367;52.508;13.284;2023-05-07T02:28:09;11.60;99.90
12604;DHT22;6367;52.508;13.284;2023-05-07T02:30:35;11.80;99.90
12604;DHT22;6367;52.508;13.284;2023-05-07T02:33:02;11.70;99.90
12604;DHT22;6367;52.508;13.284;2023-05-07T02:35:27;11.80;99.90
12604;DHT22;6367;52.508;13.284;2023-05-07T02:37:53;11.90;99.90
12604;DHT22;6367;52.508;13.284;2023-05-07T02:40:18;11.80;99.90
12604;DHT22;6367;52.508;13.284;2023-05-07T02:42:44;11.60;99.90
12604;DHT22;6367;52.508;13.284;2023-05-07T02:45:10;11.60;99.90
12604;DHT22;6367;52.508;13.284;2023-05-07T02:47:36;11.60;99.90
12604;DHT22;6367;52.508;13.284;2023-05-07T02:50:02;11.70;99.90
12604;DHT22;6367;52.508;13.284;2023-05-07T02:52:28;11.70;99.90
12604;DHT22;6367;52.508;13.284;2023-05-07T02:54:53;11.70;99.90
12604;DHT22;6367;52.508;13.284;2023-05-07T02:57:19;11.50;99.90
12604;DHT22;6367;52.508;13.284;2023-05-07T02:59:44;11.50;99.90
12604;DHT22;6367;52.508;13.284;2023-05-07T03:02:10;11.60;99.90
12604;DHT22;6367;52.508;13.284;2023-05-07T03:04:36;11.80;99.90
12604;DHT22;6367;52.508;13.284;2023-05-07T03:07:01;11.70;99.90
12604;DHT22;6367;52.508;13.284;2023-05-07T03:09:27;11.50;99.90
12604;DHT22;6367;52.508;13.284;2023-05-07T03:11:53;11.50;99.90
12604;DHT22;6367;52.508;13.284;2023-05-07T03:14:18;12.20;99.90
12604;DHT22;6367;52.508;13.284;2023-05-07T03:16:44;11.50;99.90
12604;DHT22;6367;52.508;13.284;2023-05-07T03:19:10;11.60;99.90
12604;DHT22;6367;52.508;13.284;2023-05-07T03:21:35;11.60;99.90
12604;DHT22;6367;52.508;13.284;2023-05-07T03:24:01;11.60;99.90
12604;DHT22;6367;52.508;13.284;2023-05-07T03:26:26;11.60;99.90
12604;DHT22;6367;52.508;13.284;2023-05-07T03:28:52;11.80;99.90
12604;DHT22;6367;52.508;13.284;2023-05-07T03:31:18;11.80;99.90
12604;DHT22;6367;52.508;13.284;2023-05-07T03:33:57;11.70;99.90
12604;DHT22;6367;52.508;13.284;2023-05-07T03:36:23;11.60;99.90
12604;DHT22;6367;52.508;13.284;2023-05-07T03:38:49;11.60;99.90
12604;DHT22;6367;52.508;13.284;2023-05-07T03:41:15;11.60;99.90
12604;DHT22;6367;52.508;13.284;2023-05-07T03:43:41;11.60;99.90
12604;DHT22;6367;52.508;13.284;2023-05-07T03:46:07;11.50;99.90
12604;DHT22;6367;52.508;13.284;2023-05-07T03:48:32;11.60;99.90
12604;DHT22;6367;52.508;13.284;2023-05-07T03:50:59;11.60;99.90
12604;DHT22;6367;52.508;13.284;2023-05-07T03:53:24;11.80;99.90
12604;DHT22;6367;52.508;13.284;2023-05-07T03:55:50;11.90;99.90
12604;DHT22;6367;52.508;13.284;2023-05-07T03:58:16;12.00;99.90
12604;DHT22;6367;52.508;13.284;2023-05-07T04:00:42;11.90;99.90
12604;DHT22;6367;52.508;13.284;2023-05-07T04:03:08;11.70;99.90
12604;DHT22;6367;52.508;13.284;2023-05-07T04:05:33;11.40;99.90
12604;DHT22;6367;52.508;13.284;2023-05-07T04:07:59;11.50;99.90
12604;DHT22;6367;52.508;13.284;2023-05-07T04:10:25;11.60;99.90
12604;DHT22;6367;52.508;13.284;2023-05-07T04:12:51;11.70;99.90
12604;DHT22;6367;52.508;13.284;2023-05-07T04:15:17;11.70;99.90
12604;DHT22;6367;52.508;13.284;2023-05-07T04:17:43;11.70;99.90
12604;DHT22;6367;52.508;13.284;2023-05-07T04:20:10;11.70;99.90
12604;DHT22;6367;52.508;13.284;2023-05-07T04:22:36;11.50;99.90
12604;DHT22;6367;52.508;13.284;2023-05-07T04:25:02;11.40;99.90
12604;DHT22;6367;52.508;13.284;2023-05-07T04:27:28;11.50;99.90
12604;DHT22;6367;52.508;13.284;2023-05-07T04:29:54;11.50;99.90
12604;DHT22;6367;52.508;13.284;2023-05-07T04:32:24;11.40;99.90
12604;DHT22;6367;52.508;13.284;2023-05-07T04:34:50;11.50;99.90
12604;DHT22;6367;52.508;13.284;2023-05-07T04:37:16;11.50;99.90
12604;DHT22;6367;52.508;13.284;2023-05-07T04:39:42;11.50;99.90
12604;DHT22;6367;52.508;13.284;2023-05-07T04:42:08;11.50;99.90
12604;DHT22;6367;52.508;13.284;2023-05-07T04:44:34;11.50;99.90
12604;DHT22;6367;52.508;13.284;2023-05-07T04:47:00;11.50;99.90
12604;DHT22;6367;52.508;13.284;2023-05-07T04:49:26;11.60;99.90
12604;DHT22;6367;52.508;13.284;2023-05-07T04:51:52;11.60;99.90
12604;DHT22;6367;52.508;13.284;2023-05-07T04:54:17;11.60;99.90
12604;DHT22;6367;52.508;13.284;2023-05-07T04:56:43;11.50;99.90
12604;DHT22;6367;52.508;13.284;2023-05-07T04:59:09;11.60;99.90
12604;DHT22;6367;52.508;13.284;2023-05-07T05:01:34;11.70;99.90
12604;DHT22;6367;52.508;13.284;2023-05-07T05:04:00;11.90;99.90
12604;DHT22;6367;52.508;13.284;2023-05-07T05:06:26;11.50;99.90
12604;DHT22;6367;52.508;13.284;2023-05-07T05:08:51;11.60;99.90
12604;DHT22;6367;52.508;13.284;2023-05-07T05:11:17;11.50;99.90
12604;DHT22;6367;52.508;13.284;2023-05-07T05:13:43;11.60;99.90
12604;DHT22;6367;52.508;13.284;2023-05-07T05:16:08;11.80;99.90
12604;DHT22;6367;52.508;13.284;2023-05-07T05:18:34;11.80;99.90
12604;DHT22;6367;52.508;13.284;2023-05-07T05:21:00;11.80;99.90
12604;DHT22;6367;52.508;13.284;2023-05-07T05:23:26;11.90;99.90
12604;DHT22;6367;52.508;13.284;2023-05-07T05:25:56;11.80;99.90
12604;DHT22;6367;52.508;13.284;2023-05-07T05:28:23;11.80;99.90
12604;DHT22;6367;52.508;13.284;2023-05-07T05:30:49;12.30;99.90
12604;DHT22;6367;52.508;13.284;2023-05-07T05:33:15;12.00;99.90
12604;DHT22;6367;52.508;13.284;2023-05-07T05:35:41;11.90;99.90
12604;DHT22;6367;52.508;13.284;2023-05-07T05:38:06;12.00;99.90
12604;DHT22;6367;52.508;13.284;2023-05-07T05:40:32;11.90;99.90
12604;DHT22;6367;52.508;13.284;2023-05-07T05:42:59;11.90;99.90
12604;DHT22;6367;52.508;13.284;2023-05-07T05:45:25;11.80;99.90
12604;DHT22;6367;52.508;13.284;2023-05-07T05:47:53;11.90;99.90
12604;DHT22;6367;52.508;13.284;2023-05-07T05:50:21;11.90;99.90
12604;DHT22;6367;52.508;13.284;2023-05-07T05:52:46;12.00;99.90
12604;DHT22;6367;52.508;13.284;2023-05-07T05:55:12;11.90;99.90
12604;DHT22;6367;52.508;13.284;2023-05-07T05:57:38;12.10;99.90
12604;DHT22;6367;52.508;13.284;2023-05-07T06:00:04;12.10;99.90
12604;DHT22;6367;52.508;13.284;2023-05-07T06:02:30;12.00;99.90
12604;DHT22;6367;52.508;13.284;2023-05-07T06:04:56;11.90;99.90
12604;DHT22;6367;52.508;13.284;2023-05-07T06:07:21;12.40;99.90
12604;DHT22;6367;52.508;13.284;2023-05-07T06:09:47;12.20;99.90
12604;DHT22;6367;52.508;13.284;2023-05-07T06:12:13;12.20;99.90
12604;DHT22;6367;52.508;13.284;2023-05-07T06:14:38;12.20;99.90
12604;DHT22;6367;52.508;13.284;2023-05-07T06:17:04;12.20;99.90
12604;DHT22;6367;52.508;13.284;2023-05-07T06:19:30;12.30;99.90
12604;DHT22;6367;52.508;13.284;2023-05-07T06:21:56;12.40;99.90
12604;DHT22;6367;52.508;13.284;2023-05-07T06:24:22;12.40;99.90
12604;DHT22;6367;52.508;13.284;2023-05-07T06:26:48;12.50;99.90
12604;DHT22;6367;52.508;13.284;2023-05-07T06:29:13;12.40;99.90
12604;DHT22;6367;52.508;13.284;2023-05-07T06:31:39;12.40;99.90
12604;DHT22;6367;52.508;13.284;2023-05-07T06:34:05;12.60;99.90
12604;DHT22;6367;52.508;13.284;2023-05-07T06:36:30;12.70;99.90
12604;DHT22;6367;52.508;13.284;2023-05-07T06:38:56;12.70;99.90
12604;DHT22;6367;52.508;13.284;2023-05-07T06:41:22;12.60;99.90
12604;DHT22;6367;52.508;13.284;2023-05-07T06:43:47;12.60;99.90
12604;DHT22;6367;52.508;13.284;2023-05-07T06:46:13;12.60;99.90
12604;DHT22;6367;52.508;13.284;2023-05-07T06:48:39;12.80;99.90
12604;DHT22;6367;52.508;13.284;2023-05-07T06:51:04;12.90;99.90
12604;DHT22;6367;52.508;13.284;2023-05-07T06:53:30;13.00;99.90
12604;DHT22;6367;52.508;13.284;2023-05-07T06:55:56;13.10;99.90
12604;DHT22;6367;52.508;13.284;2023-05-07T06:58:22;13.00;99.90
12604;DHT22;6367;52.508;13.284;2023-05-07T07:00:49;13.00;99.90
12604;DHT22;6367;52.508;13.284;2023-05-07T07:03:15;13.10;99.90
12604;DHT22;6367;52.508;13.284;2023-05-07T07:05:41;13.10;99.90
12604;DHT22;6367;52.508;13.284;2023-05-07T07:08:07;13.10;99.90
12604;DHT22;6367;52.508;13.284;2023-05-07T07:10:33;13.20;99.90
12604;DHT22;6367;52.508;13.284;2023-05-07T07:12:59;13.10;99.80
12604;DHT22;6367;52.508;13.284;2023-05-07T07:15:25;13.00;99.90
12604;DHT22;6367;52.508;13.284;2023-05-07T07:17:51;13.00;99.90
12604;DHT22;6367;52.508;13.284;2023-05-07T07:20:17;13.10;99.90
12604;DHT22;6367;52.508;13.284;2023-05-07T07:22:42;13.20;99.90
12604;DHT22;6367;52.508;13.284;2023-05-07T07:25:09;13.10;99.80
12604;DHT22;6367;52.508;13.284;2023-05-07T07:27:35;13.10;99.90
12604;DHT22;6367;52.508;13.284;2023-05-07T07:30:01;13.20;99.80
12604;DHT22;6367;52.508;13.284;2023-05-07T07:32:27;13.30;99.80
12604;DHT22;6367;52.508;13.284;2023-05-07T07:34:52;13.30;99.50
12604;DHT22;6367;52.508;13.284;2023-05-07T07:37:18;13.40;99.40
12604;DHT22;6367;52.508;13.284;2023-05-07T07:39:44;13.30;99.60
12604;DHT22;6367;52.508;13.284;2023-05-07T07:42:09;13.50;99.70
12604;DHT22;6367;52.508;13.284;2023-05-07T07:44:35;13.80;99.50
12604;DHT22;6367;52.508;13.284;2023-05-07T07:47:01;13.70;99.70
12604;DHT22;6367;52.508;13.284;2023-05-07T07:49:26;13.80;99.30
12604;DHT22;6367;52.508;13.284;2023-05-07T07:51:52;14.00;99.10
12604;DHT22;6367;52.508;13.284;2023-05-07T07:54:18;14.30;98.50
12604;DHT22;6367;52.508;13.284;2023-05-07T07:56:43;14.40;97.60
12604;DHT22;6367;52.508;13.284;2023-05-07T07:59:09;14.30;97.40
12604;DHT22;6367;52.508;13.284;2023-05-07T08:01:35;14.20;97.70
12604;DHT22;6367;52.508;13.284;2023-05-07T08:04:00;14.30;97.70
12604;DHT22;6367;52.508;13.284;2023-05-07T08:06:28;14.50;97.50
12604;DHT22;6367;52.508;13.284;2023-05-07T08:08:54;14.70;97.20
12604;DHT22;6367;52.508;13.284;2023-05-07T08:11:20;13.90;96.60
12604;DHT22;6367;52.508;13.284;2023-05-07T08:13:47;15.00;97.00
12604;DHT22;6367;52.508;13.284;2023-05-07T08:16:13;15.00;96.70
12604;DHT22;6367;52.508;13.284;2023-05-07T08:18:38;15.10;96.40
12604;DHT22;6367;52.508;13.284;2023-05-07T08:21:04;15.10;96.10
12604;DHT22;6367;52.508;13.284;2023-05-07T08:23:30;15.10;95.70
12604;DHT22;6367;52.508;13.284;2023-05-07T08:25:55;15.10;95.40
12604;DHT22;6367;52.508;13.284;2023-05-07T08:28:21;15.20;95.40
12604;DHT22;6367;52.508;13.284;2023-05-07T08:30:47;15.30;95.20
12604;DHT22;6367;52.508;13.284;2023-05-07T08:33:13;15.40;95.10
12604;DHT22;6367;52.508;13.284;2023-05-07T08:35:39;15.30;94.70
12604;DHT22;6367;52.508;13.284;2023-05-07T08:38:04;15.20;95.20
12604;DHT22;6367;52.508;13.284;2023-05-07T08:40:37;15.20;95.30
12604;DHT22;6367;52.508;13.284;2023-05-07T08:43:05;15.40;95.20
12604;DHT22;6367;52.508;13.284;2023-05-07T08:45:33;15.60;94.40
12604;DHT22;6367;52.508;13.284;2023-05-07T08:48:01;15.70;94.40
12604;DHT22;6367;52.508;13.284;2023-05-07T08:50:27;15.80;94.50
12604;DHT22;6367;52.508;13.284;2023-05-07T08:52:53;15.90;93.90
12604;DHT22;6367;52.508;13.284;2023-05-07T08:55:20;15.30;93.90
12604;DHT22;6367;52.508;13.284;2023-05-07T08:57:46;16.10;94.10
12604;DHT22;6367;52.508;13.284;2023-05-07T09:00:12;16.40;93.60
12604;DHT22;6367;52.508;13.284;2023-05-07T09:02:38;16.50;93.50
12604;DHT22;6367;52.508;13.284;2023-05-07T09:05:04;16.50;93.50
12604;DHT22;6367;52.508;13.284;2023-05-07T09:07:30;16.20;93.60
12604;DHT22;6367;52.508;13.284;2023-05-07T09:09:56;16.30;93.90
12604;DHT22;6367;52.508;13.284;2023-05-07T09:12:23;16.30;93.40
12604;DHT22;6367;52.508;13.284;2023-05-07T09:14:49;16.30;93.70
12604;DHT22;6367;52.508;13.284;2023-05-07T09:17:16;16.40;93.80
12604;DHT22;6367;52.508;13.284;2023-05-07T09:19:46;16.40;93.60
12604;DHT22;6367;52.508;13.284;2023-05-07T09:22:12;16.40;93.20
12604;DHT22;6367;52.508;13.284;2023-05-07T09:24:38;16.10;93.30
12604;DHT22;6367;52.508;13.284;2023-05-07T09:27:05;16.20;93.50
12604;DHT22;6367;52.508;13.284;2023-05-07T09:29:31;16.30;93.30
12604;DHT22;6367;52.508;13.284;2023-05-07T09:32:07;16.30;93.20
12604;DHT22;6367;52.508;13.284;2023-05-07T09:34:33;16.20;93.30
12604;DHT22;6367;52.508;13.284;2023-05-07T09:37:00;16.00;93.60
12604;DHT22;6367;52.508;13.284;2023-05-07T09:39:26;16.00;93.80
12604;DHT22;6367;52.508;13.284;2023-05-07T09:41:51;16.10;93.70
12604;DHT22;6367;52.508;13.284;2023-05-07T09:44:20;16.20;93.60
12604;DHT22;6367;52.508;13.284;2023-05-07T09:46:53;16.30;93.30
12604;DHT22;6367;52.508;13.284;2023-05-07T09:49:23;16.30;93.20
12604;DHT22;6367;52.508;13.284;2023-05-07T09:51:51;16.10;93.30
12604;DHT22;6367;52.508;13.284;2023-05-07T09:54:18;16.10;93.70
12604;DHT22;6367;52.508;13.284;2023-05-07T09:56:44;16.00;93.40
12604;DHT22;6367;52.508;13.284;2023-05-07T09:59:13;16.10;93.50
12604;DHT22;6367;52.508;13.284;2023-05-07T10:01:41;16.00;93.60
12604;DHT22;6367;52.508;13.284;2023-05-07T10:04:08;16.00;93.50
12604;DHT22;6367;52.508;13.284;2023-05-07T10:06:35;15.90;93.80
12604;DHT22;6367;52.508;13.284;2023-05-07T10:09:02;15.40;93.50
12604;DHT22;6367;52.508;13.284;2023-05-07T10:11:28;16.00;93.60
12604;DHT22;6367;52.508;13.284;2023-05-07T10:13:54;15.90;93.30
12604;DHT22;6367;52.508;13.284;2023-05-07T10:16:21;15.90;93.30
12604;DHT22;6367;52.508;13.284;2023-05-07T10:18:47;15.90;93.20
12604;DHT22;6367;52.508;13.284;2023-05-07T10:21:18;16.10;93.30
12604;DHT22;6367;52.508;13.284;2023-05-07T10:24:05;15.90;93.30
12604;DHT22;6367;52.508;13.284;2023-05-07T10:26:42;16.10;93.40
12604;DHT22;6367;52.508;13.284;2023-05-07T10:29:14;16.40;92.50
12604;DHT22;6367;52.508;13.284;2023-05-07T10:34:39;16.40;92.40
12604;DHT22;6367;52.508;13.284;2023-05-07T10:37:06;16.20;92.10
12604;DHT22;6367;52.508;13.284;2023-05-07T10:39:32;16.20;92.30
12604;DHT22;6367;52.508;13.284;2023-05-07T10:42:08;16.10;92.30
12604;DHT22;6367;52.508;13.284;2023-05-07T10:44:34;16.10;92.30
12604;DHT22;6367;52.508;13.284;2023-05-07T10:47:18;16.20;92.30
12604;DHT22;6367;52.508;13.284;2023-05-07T10:52:18;16.40;91.70
12604;DHT22;6367;52.508;13.284;2023-05-07T10:54:44;16.30;92.00
12604;DHT22;6367;52.508;13.284;2023-05-07T10:57:35;16.40;92.20
12604;DHT22;6367;52.508;13.284;2023-05-07T11:00:02;16.70;92.10
12604;DHT22;6367;52.508;13.284;2023-05-07T11:05:32;17.30;90.60
12604;DHT22;6367;52.508;13.284;2023-05-07T11:08:00;17.50;90.30
12604;DHT22;6367;52.508;13.284;2023-05-07T11:10:54;17.60;90.30
12604;DHT22;6367;52.508;13.284;2023-05-07T11:13:47;17.60;89.70
12604;DHT22;6367;52.508;13.284;2023-05-07T11:16:21;17.70;90.20
12604;DHT22;6367;52.508;13.284;2023-05-07T11:18:52;17.80;90.00
12604;DHT22;6367;52.508;13.284;2023-05-07T11:21:50;17.60;90.00
12604;DHT22;6367;52.508;13.284;2023-05-07T11:24:16;17.60;88.70
12604;DHT22;6367;52.508;13.284;2023-05-07T11:26:47;17.50;88.70
12604;DHT22;6367;52.508;13.284;2023-05-07T11:29:21;17.50;88.90
12604;DHT22;6367;52.508;13.284;2023-05-07T11:31:53;17.60;88.80
12604;DHT22;6367;52.508;13.284;2023-05-07T11:34:23;17.90;88.40
12604;DHT22;6367;52.508;13.284;2023-05-07T11:36:49;18.50;87.30
12604;DHT22;6367;52.508;13.284;2023-05-07T11:41:50;17.50;87.50
12604;DHT22;6367;52.508;13.284;2023-05-07T11:44:15;17.40;88.30
12604;DHT22;6367;52.508;13.284;2023-05-07T11:46:43;17.60;87.60
12604;DHT22;6367;52.508;13.284;2023-05-07T11:49:10;17.90;86.40
12604;DHT22;6367;52.508;13.284;2023-05-07T11:51:36;18.00;87.30
12604;DHT22;6367;52.508;13.284;2023-05-07T11:54:03;18.30;86.80
12604;DHT22;6367;52.508;13.284;2023-05-07T11:56:31;18.50;85.20
12604;DHT22;6367;52.508;13.284;2023-05-07T11:58:59;18.80;83.50
12604;DHT22;6367;52.508;13.284;2023-05-07T12:01:25;18.80;84.30
12604;DHT22;6367;52.508;13.284;2023-05-07T12:03:50;18.60;84.50
12604;DHT22;6367;52.508;13.284;2023-05-07T12:06:17;18.30;85.20
12604;DHT22;6367;52.508;13.284;2023-05-07T12:08:43;18.00;85.60
12604;DHT22;6367;52.508;13.284;2023-05-07T12:11:14;17.70;86.80
12604;DHT22;6367;52.508;13.284;2023-05-07T12:13:40;17.50;88.20
12604;DHT22;6367;52.508;13.284;2023-05-07T12:16:07;17.70;88.60
12604;DHT22;6367;52.508;13.284;2023-05-07T12:18:34;17.90;87.40
12604;DHT22;6367;52.508;13.284;2023-05-07T12:21:01;17.70;85.90
12604;DHT22;6367;52.508;13.284;2023-05-07T12:23:27;18.20;85.30
12604;DHT22;6367;52.508;13.284;2023-05-07T12:25:53;18.50;85.10
12604;DHT22;6367;52.508;13.284;2023-05-07T12:28:19;18.80;82.90
12604;DHT22;6367;52.508;13.284;2023-05-07T12:30:48;19.00;82.90
12604;DHT22;6367;52.508;13.284;2023-05-07T12:33:24;19.00;83.10
12604;DHT22;6367;52.508;13.284;2023-05-07T12:35:50;19.00;83.50
12604;DHT22;6367;52.508;13.284;2023-05-07T12:38:17;19.10;83.50
12604;DHT22;6367;52.508;13.284;2023-05-07T12:40:50;19.20;82.50
12604;DHT22;6367;52.508;13.284;2023-05-07T12:43:19;19.30;82.00
12604;DHT22;6367;52.508;13.284;2023-05-07T12:45:47;19.40;82.00
12604;DHT22;6367;52.508;13.284;2023-05-07T12:48:13;19.50;80.90
12604;DHT22;6367;52.508;13.284;2023-05-07T12:50:39;19.50;80.60
12604;DHT22;6367;52.508;13.284;2023-05-07T12:53:06;19.40;80.50
12604;DHT22;6367;52.508;13.284;2023-05-07T12:55:44;19.30;79.80
12604;DHT22;6367;52.508;13.284;2023-05-07T12:58:33;19.20;80.00
12604;DHT22;6367;52.508;13.284;2023-05-07T13:01:00;19.30;80.30
12604;DHT22;6367;52.508;13.284;2023-05-07T13:03:31;19.40;79.90
12604;DHT22;6367;52.508;13.284;2023-05-07T13:06:05;19.30;80.00
12604;DHT22;6367;52.508;13.284;2023-05-07T13:08:38;19.20;80.20
12604;DHT22;6367;52.508;13.284;2023-05-07T13:11:07;19.20;80.40
12604;DHT22;6367;52.508;13.284;2023-05-07T13:13:37;19.20;80.90
12604;DHT22;6367;52.508;13.284;2023-05-07T13:16:05;19.10;81.40
12604;DHT22;6367;52.508;13.284;2023-05-07T13:18:32;19.20;80.10
12604;DHT22;6367;52.508;13.284;2023-05-07T13:20:58;19.20;79.50
12604;DHT22;6367;52.508;13.284;2023-05-07T13:23:24;19.10;80.20
12604;DHT22;6367;52.508;13.284;2023-05-07T13:25:50;19.10;80.30
12604;DHT22;6367;52.508;13.284;2023-05-07T13:28:17;19.30;80.40
12604;DHT22;6367;52.508;13.284;2023-05-07T13:30:44;19.30;80.60
12604;DHT22;6367;52.508;13.284;2023-05-07T13:33:10;19.40;80.10
12604;DHT22;6367;52.508;13.284;2023-05-07T13:35:35;19.40;78.60
12604;DHT22;6367;52.508;13.284;2023-05-07T13:38:01;19.30;78.50
12604;DHT22;6367;52.508;13.284;2023-05-07T13:40:26;19.30;79.60
12604;DHT22;6367;52.508;13.284;2023-05-07T13:42:53;19.10;79.60
12604;DHT22;6367;52.508;13.284;2023-05-07T13:45:19;19.10;80.00
12604;DHT22;6367;52.508;13.284;2023-05-07T13:47:45;19.10;78.90
12604;DHT22;6367;52.508;13.284;2023-05-07T13:50:12;18.90;78.70
12604;DHT22;6367;52.508;13.284;2023-05-07T13:52:41;18.80;79.00
12604;DHT22;6367;52.508;13.284;2023-05-07T13:55:09;18.70;79.40
12604;DHT22;6367;52.508;13.284;2023-05-07T13:57:35;18.60;78.90
12604;DHT22;6367;52.508;13.284;2023-05-07T14:00:00;18.50;80.10
12604;DHT22;6367;52.508;13.284;2023-05-07T14:02:26;18.50;80.00
12604;DHT22;6367;52.508;13.284;2023-05-07T14:04:52;18.40;79.20
12604;DHT22;6367;52.508;13.284;2023-05-07T14:07:17;18.10;80.00
12604;DHT22;6367;52.508;13.284;2023-05-07T14:09:43;18.10;80.30
12604;DHT22;6367;52.508;13.284;2023-05-07T14:12:10;17.30;79.10
12604;DHT22;6367;52.508;13.284;2023-05-07T14:14:36;18.10;80.20
12604;DHT22;6367;52.508;13.284;2023-05-07T14:17:01;18.10;78.50
12604;DHT22;6367;52.508;13.284;2023-05-07T14:19:27;18.20;77.80
12604;DHT22;6367;52.508;13.284;2023-05-07T14:21:53;18.30;78.10
12604;DHT22;6367;52.508;13.284;2023-05-07T14:24:18;18.20;78.40
12604;DHT22;6367;52.508;13.284;2023-05-07T14:26:44;18.30;78.60
12604;DHT22;6367;52.508;13.284;2023-05-07T14:29:10;18.40;78.80
12604;DHT22;6367;52.508;13.284;2023-05-07T14:31:36;18.40;78.60
12604;DHT22;6367;52.508;13.284;2023-05-07T14:34:01;18.50;79.10
12604;DHT22;6367;52.508;13.284;2023-05-07T14:36:27;18.60;79.30
12604;DHT22;6367;52.508;13.284;2023-05-07T14:38:53;18.70;79.60
12604;DHT22;6367;52.508;13.284;2023-05-07T14:41:21;18.70;79.90
12604;DHT22;6367;52.508;13.284;2023-05-07T14:43:47;18.90;79.10
12604;DHT22;6367;52.508;13.284;2023-05-07T14:46:19;19.00;77.70
12604;DHT22;6367;52.508;13.284;2023-05-07T14:48:45;18.90;77.20
12604;DHT22;6367;52.508;13.284;2023-05-07T14:51:14;18.90;77.10
12604;DHT22;6367;52.508;13.284;2023-05-07T14:53:43;19.00;77.20
12604;DHT22;6367;52.508;13.284;2023-05-07T14:56:08;19.10;76.00
12604;DHT22;6367;52.508;13.284;2023-05-07T14:58:34;19.00;76.60
12604;DHT22;6367;52.508;13.284;2023-05-07T15:01:00;19.00;76.90
12604;DHT22;6367;52.508;13.284;2023-05-07T15:03:26;19.10;76.80
12604;DHT22;6367;52.508;13.284;2023-05-07T15:05:52;19.20;77.20
12604;DHT22;6367;52.508;13.284;2023-05-07T15:08:18;19.20;77.20
12604;DHT22;6367;52.508;13.284;2023-05-07T15:10:44;19.30;77.30
12604;DHT22;6367;52.508;13.284;2023-05-07T15:13:11;19.30;77.60
12604;DHT22;6367;52.508;13.284;2023-05-07T15:15:38;19.40;76.80
12604;DHT22;6367;52.508;13.284;2023-05-07T15:18:03;19.40;76.80
12604;DHT22;6367;52.508;13.284;2023-05-07T15:20:29;19.40;77.30
12604;DHT22;6367;52.508;13.284;2023-05-07T15:22:55;19.30;76.90
12604;DHT22;6367;52.508;13.284;2023-05-07T15:25:22;19.20;77.40
12604;DHT22;6367;52.508;13.284;2023-05-07T15:27:51;19.10;77.30
12604;DHT22;6367;52.508;13.284;2023-05-07T15:30:17;18.80;77.70
12604;DHT22;6367;52.508;13.284;2023-05-07T15:32:45;18.50;78.60
12604;DHT22;6367;52.508;13.284;2023-05-07T15:35:11;18.50;78.90
12604;DHT22;6367;52.508;13.284;2023-05-07T15:37:37;18.50;79.10
12604;DHT22;6367;52.508;13.284;2023-05-07T15:40:03;18.60;79.40